Time;durP1;ratioP1;P1;durP2;ratioP2;P2;SDS_P1;SDS_P2;PMS_P1;PMS_P2;Temp;Humidity;BMP_temperature;BMP_pressure;BME280_temperature;BME280_humidity;BME280_pressure;Samples;Min_cycle;Max_cycle;Signal;HPM_P1;HPM_P2
2022/05/25 00:02:06;;;;;;;4.97;3.38;;;;;;;9.87;nan;100067.41;5031943;28;20511;-67
2022/05/25 00:04:34;;;;;;;6.30;3.58;;;;;;;9.84;nan;100058.94;5028545;28;20038;-67
2022/05/25 00:07:02;;;;;;;7.30;3.83;;;;;;;9.82;nan;100061.50;5027141;28;20473;-66
2022/05/25 00:09:29;;;;;;;5.97;3.67;;;;;;;9.79;nan;100064.19;5028187;28;20236;-67
2022/05/25 00:11:56;;;;;;;7.03;3.75;;;;;;;9.76;nan;100069.38;5020502;28;20034;-68
2022/05/25 00:14:23;;;;;;;6.55;3.90;;;;;;;9.72;nan;100066.03;5029189;28;20052;-67
2022/05/25 00:16:51;;;;;;;5.82;3.78;;;;;;;9.73;nan;100069.44;5032992;28;20046;-68
2022/05/25 00:22:04;;;;;;;7.53;4.28;;;;;;;9.71;nan;100074.63;5031204;28;20042;-67
2022/05/25 00:24:32;;;;;;;5.35;4.22;;;;;;;9.70;nan;100074.66;5031503;28;20044;-68
2022/05/25 00:26:59;;;;;;;6.05;4.22;;;;;;;9.68;nan;100074.69;5022603;28;20042;-68
2022/05/25 00:29:26;;;;;;;5.22;4.38;;;;;;;9.67;nan;100074.72;5031629;28;20474;-68
2022/05/25 00:31:53;;;;;;;5.88;4.68;;;;;;;9.64;nan;100071.31;5030835;28;20046;-67
2022/05/25 00:34:20;;;;;;;6.40;4.28;;;;;;;9.64;nan;100070.50;5020793;28;20061;-67
2022/05/25 00:36:47;;;;;;;5.60;4.30;;;;;;;9.64;nan;100073.91;5029739;28;20049;-68
2022/05/25 00:39:23;;;;;;;5.50;4.38;;;;;;;9.63;nan;100077.34;5029703;28;20105;-66
2022/05/25 00:41:52;;;;;;;5.25;4.47;;;;;;;9.60;nan;100072.28;5028371;28;20054;-69
2022/05/25 00:44:19;;;;;;;6.07;4.28;;;;;;;9.59;nan;100083.44;5016140;28;20129;-68
2022/05/25 00:46:48;;;;;;;5.25;4.75;;;;;;;9.58;nan;100084.31;5048226;28;20045;-67
2022/05/25 00:49:32;;;;;;;8.98;4.88;;;;;;;9.58;nan;100086.91;5025320;28;20039;-67
2022/05/25 00:52:05;;;;;;;6.47;4.50;;;;;;;9.56;nan;100083.50;5030827;28;20046;-66
2022/05/25 00:54:49;;;;;;;6.57;4.78;;;;;;;9.54;nan;100092.97;5024849;28;20517;-70
2022/05/25 00:57:22;;;;;;;6.82;5.10;;;;;;;9.51;nan;100081.91;5031214;28;20054;-70
2022/05/25 01:00:08;;;;;;;6.00;4.85;;;;;;;9.48;nan;100083.66;5031700;28;20045;-70
2022/05/25 01:02:47;;;;;;;5.63;5.00;;;;;;;9.46;nan;100082.81;5032085;28;20042;-69
2022/05/25 01:05:56;;;;;;;7.57;5.13;;;;;;;9.45;nan;100090.56;5041884;28;20054;-66
2022/05/25 01:09:02;;;;;;;6.60;5.20;;;;;;;9.41;nan;100082.09;5030276;28;20116;-65
2022/05/25 01:12:13;;;;;;;6.72;5.20;;;;;;;9.37;nan;100080.44;5016097;28;20069;-66
2022/05/25 01:15:49;;;;;;;8.30;5.07;;;;;;;9.35;nan;100086.50;5021211;28;20534;-67
2022/05/25 01:18:33;;;;;;;7.47;5.13;;;;;;;9.30;nan;100094.28;5016217;28;20450;-68
2022/05/25 01:21:17;;;;;;;6.35;5.03;;;;;;;9.25;nan;100091.81;5028941;28;20086;-67
2022/05/25 01:24:37;;;;;;;5.53;4.75;;;;;;;9.21;nan;100089.34;5032731;28;20038;-67
2022/05/25 01:27:41;;;;;;;7.47;4.93;;;;;;;9.14;nan;100088.59;5027724;28;20096;-70
2022/05/25 01:30:33;;;;;;;5.55;4.88;;;;;;;9.06;nan;100098.19;5030547;28;20116;-70
2022/05/25 01:33:40;;;;;;;5.50;4.88;;;;;;;8.97;nan;100091.47;5017040;28;20509;-69
2022/05/25 01:36:33;;;;;;;6.97;5.10;;;;;;;8.87;nan;100095.94;5028602;28;20038;-71
2022/05/25 01:39:09;;;;;;;6.45;5.07;;;;;;;8.80;nan;100094.34;5024555;28;20117;-70
2022/05/25 01:42:00;;;;;;;5.95;5.35;;;;;;;8.80;nan;100094.34;5017995;28;20134;-69
2022/05/25 01:44:39;;;;;;;7.43;5.80;;;;;;;8.76;nan;100100.41;5023177;28;20092;-70
2022/05/25 01:47:10;;;;;;;9.38;6.20;;;;;;;8.73;nan;100100.44;5015616;28;20047;-69
2022/05/25 01:50:06;;;;;;;8.57;5.70;;;;;;;8.69;nan;100103.09;5025861;28;20050;-70
2022/05/25 01:52:42;;;;;;;6.38;5.65;;;;;;;8.67;nan;100107.41;5029423;28;20153;-69
2022/05/25 01:55:18;;;;;;;8.27;6.38;;;;;;;8.64;nan;100109.16;5030717;28;20054;-69
2022/05/25 01:57:52;;;;;;;6.88;6.18;;;;;;;8.65;nan;100115.97;5031838;28;20045;-69
2022/05/25 02:00:34;;;;;;;7.68;6.85;;;;;;;8.62;nan;100111.75;5030769;28;20460;-69
2022/05/25 02:06:43;;;;;;;8.82;6.68;;;;;;;8.65;nan;100114.28;5021219;28;20041;-69
2022/05/25 02:09:58;;;;;;;10.20;7.00;;;;;;;8.63;nan;100116.00;5017495;28;20038;-69
2022/05/25 02:12:56;;;;;;;10.93;6.97;;;;;;;8.60;nan;100118.63;5043813;28;20045;-68
2022/05/25 02:16:02;;;;;;;11.13;7.82;;;;;;;8.59;nan;100116.94;5046794;28;20052;-68
2022/05/25 02:19:14;;;;;;;10.43;8.20;;;;;;;8.59;nan;100123.78;5013996;28;20053;-67
2022/05/25 02:21:54;;;;;;;11.32;8.10;;;;;;;8.61;nan;100122.03;5020932;28;20057;-67
2022/05/25 02:24:31;;;;;;;13.20;8.90;;;;;;;8.62;nan;100127.16;5031313;28;20042;-68
2022/05/25 02:27:06;;;;;;;12.82;9.10;;;;;;;8.65;nan;100121.97;5024455;28;20045;-68
2022/05/25 02:29:41;;;;;;;11.80;8.32;;;;;;;8.66;nan;100127.94;5023543;28;20042;-67
2022/05/25 02:32:43;;;;;;;11.90;8.55;;;;;;;8.66;nan;100123.66;5023520;28;20045;-66
2022/05/25 02:35:15;;;;;;;12.32;8.75;;;;;;;8.65;nan;100124.53;5013959;28;20053;-66
2022/05/25 02:37:43;;;;;;;11.88;8.60;;;;;;;8.65;nan;100124.53;5015145;28;20483;-66
2022/05/25 02:40:14;;;;;;;13.80;8.80;;;;;;;8.65;nan;100126.25;5029162;28;20038;-67
2022/05/25 02:42:43;;;;;;;11.20;8.60;;;;;;;8.62;nan;100129.72;5030436;28;20038;-65
2022/05/25 02:45:12;;;;;;;12.38;8.43;;;;;;;8.62;nan;100127.16;5027547;28;20053;-67
2022/05/25 02:47:40;;;;;;;11.82;9.25;;;;;;;8.61;nan;100135.72;5029683;28;20050;-67
2022/05/25 02:50:08;;;;;;;9.95;8.95;;;;;;;8.60;nan;100141.72;5030305;28;20108;-68
2022/05/25 02:52:35;;;;;;;10.95;8.48;;;;;;;8.60;nan;100133.19;5030736;28;20129;-68
2022/05/25 02:55:04;;;;;;;9.20;7.80;;;;;;;8.60;nan;100140.88;5040375;28;20056;-68
2022/05/25 02:57:32;;;;;;;12.38;8.88;;;;;;;8.54;nan;100139.25;5028013;28;20046;-68
2022/05/25 03:00:00;;;;;;;13.18;8.98;;;;;;;8.52;nan;100143.56;5030657;28;20049;-67
2022/05/25 03:02:27;;;;;;;10.85;8.60;;;;;;;8.49;nan;100141.91;5033910;28;20073;-67
2022/05/25 03:04:54;;;;;;;11.07;8.50;;;;;;;8.49;nan;100148.75;5040045;28;20128;-68
2022/05/25 03:07:21;;;;;;;10.52;8.60;;;;;;;8.47;nan;100150.47;5034426;28;20041;-69
2022/05/25 03:09:49;;;;;;;10.77;8.65;;;;;;;8.47;nan;100147.91;5034599;28;20046;-68
2022/05/25 03:12:18;;;;;;;11.70;9.27;;;;;;;8.46;nan;100147.03;5034517;28;20585;-67
2022/05/25 03:14:45;;;;;;;12.10;9.35;;;;;;;8.47;nan;100155.59;5033855;28;20046;-67
2022/05/25 03:17:14;;;;;;;11.18;9.02;;;;;;;8.48;nan;100165.03;5033024;28;20538;-65
2022/05/25 03:19:49;;;;;;;11.40;8.80;;;;;;;8.47;nan;100160.72;5032483;28;20048;-66
2022/05/25 03:22:17;;;;;;;11.55;8.93;;;;;;;8.47;nan;100165.88;5023395;28;20049;-66
2022/05/25 03:24:45;;;;;;;13.50;9.38;;;;;;;8.48;nan;100162.47;5020730;28;20054;-66
2022/05/25 03:27:13;;;;;;;12.27;9.48;;;;;;;8.49;nan;100170.13;5021526;28;20044;-65
2022/05/25 03:29:42;;;;;;;11.13;8.63;;;;;;;8.49;nan;100161.59;5034221;28;20048;-65
2022/05/25 03:32:11;;;;;;;11.50;9.15;;;;;;;8.49;nan;100164.16;5030307;28;20061;-65
2022/05/25 03:34:38;;;;;;;9.80;8.50;;;;;;;8.49;nan;100165.00;5014593;28;20042;-64
2022/05/25 03:37:05;;;;;;;10.43;8.88;;;;;;;8.48;nan;100168.44;5027281;28;20042;-63
2022/05/25 03:39:33;;;;;;;14.25;9.52;;;;;;;8.49;nan;100174.44;5031890;28;20042;-67
2022/05/25 03:42:07;;;;;;;10.38;8.70;;;;;;;8.50;nan;100181.22;5032224;28;20046;-66
2022/05/25 03:44:35;;;;;;;10.48;8.95;;;;;;;8.49;nan;100185.53;5021634;28;20531;-68
2022/05/25 03:47:03;;;;;;;10.13;8.85;;;;;;;8.50;nan;100181.22;5024322;28;20038;-65
2022/05/25 03:49:31;;;;;;;12.43;8.18;;;;;;;8.52;nan;100184.63;5015822;28;20046;-66
2022/05/25 03:51:58;;;;;;;9.55;7.88;;;;;;;8.57;nan;100182.00;5019576;28;20420;-67
2022/05/25 03:54:25;;;;;;;11.60;8.30;;;;;;;8.61;nan;100187.06;5033415;28;20721;-67
2022/05/25 03:56:53;;;;;;;12.70;8.65;;;;;;;8.65;nan;100181.03;5030139;28;20044;-67
2022/05/25 03:59:20;;;;;;;11.25;9.32;;;;;;;8.74;nan;100186.88;5032470;28;20072;-67
2022/05/25 04:01:48;;;;;;;10.85;9.15;;;;;;;8.88;nan;100182.38;5016940;28;20575;-67
2022/05/25 04:04:15;;;;;;;10.02;8.30;;;;;;;8.91;nan;100184.88;5014590;28;20104;-67
2022/05/25 04:06:43;;;;;;;14.07;8.85;;;;;;;8.93;nan;100190.84;5016787;28;20038;-67
2022/05/25 04:09:10;;;;;;;11.02;9.00;;;;;;;9.00;nan;100189.88;5028306;28;20076;-67
2022/05/25 04:11:41;;;;;;;11.10;8.88;;;;;;;9.07;nan;100187.22;5028158;28;20125;-68
2022/05/25 04:14:15;;;;;;;12.80;8.02;;;;;;;9.11;nan;100188.84;5035526;28;20101;-67
2022/05/25 04:16:44;;;;;;;12.27;8.32;;;;;;;9.21;nan;100192.97;5029197;28;20599;-68
2022/05/25 04:19:12;;;;;;;11.95;8.75;;;;;;;9.37;nan;100200.41;5032171;28;20045;-67
2022/05/25 04:21:41;;;;;;;9.13;7.68;;;;;;;9.42;nan;100207.16;5024024;28;20052;-68
2022/05/25 04:24:09;;;;;;;11.82;8.27;;;;;;;9.48;nan;100196.75;5015530;28;20113;-68
2022/05/25 04:26:37;;;;;;;10.68;7.78;;;;;;;9.55;nan;100192.38;5022794;28;20117;-69
2022/05/25 04:29:05;;;;;;;12.38;7.57;;;;;;;9.64;nan;100193.94;5029550;28;20543;-66
2022/05/25 04:31:32;;;;;;;14.98;7.72;;;;;;;9.72;nan;100191.19;5032411;28;20092;-70
2022/05/25 04:33:59;;;;;;;13.80;7.00;;;;;;;9.78;nan;100188.50;5029509;28;20133;-70
2022/05/25 04:36:26;;;;;;;8.90;6.65;;;;;;;9.88;nan;100202.03;5036779;28;20042;-68
2022/05/25 04:38:53;;;;;;;8.77;6.80;;;;;;;9.97;nan;100198.44;5033258;28;20049;-70
2022/05/25 04:41:21;;;;;;;10.00;7.18;;;;;;;10.04;nan;100198.28;5028578;28;20042;-69
2022/05/25 04:43:48;;;;;;;9.00;6.70;;;;;;;10.13;nan;100201.53;5024716;28;20037;-67
2022/05/25 04:46:15;;;;;;;8.93;6.38;;;;;;;10.43;nan;100200.03;5024994;28;20046;-67
2022/05/25 04:48:44;;;;;;;10.20;6.45;;;;;;;11.12;nan;100205.34;5027935;28;20042;-63
2022/05/25 04:51:12;;;;;;;11.57;6.40;;;;;;;11.24;nan;100204.16;5027839;28;20050;-63
2022/05/25 04:53:40;;;;;;;9.18;5.97;;;;;;;11.16;nan;100206.94;5025549;28;20762;-62
2022/05/25 04:58:53;;;;;;;6.90;5.03;;;;;;;11.08;nan;100203.69;5032100;28;20044;-67
2022/05/25 05:01:22;;;;;;;9.07;5.10;;;;;;;11.12;nan;100219.94;5040917;28;20567;-67
2022/05/25 05:03:49;;;;;;;12.02;5.43;;;;;;;11.19;nan;100214.59;5036491;28;20037;-67
2022/05/25 05:06:17;;;;;;;9.23;5.35;;;;;;;11.48;nan;100219.91;5037581;28;20049;-67
2022/05/25 05:08:44;;;;;;;9.38;4.95;;;;;;;11.68;nan;100218.53;5032273;28;20044;-67
2022/05/25 05:11:18;;;;;;;9.35;4.88;;;;;;;11.74;nan;100221.78;5039629;28;20046;-68
2022/05/25 05:13:46;;;;;;;6.80;5.40;;;;;;;11.81;nan;100230.19;5031429;28;20896;-68
2022/05/25 05:16:16;;;;;;;9.65;5.05;;;;;;;11.90;nan;100224.81;5028978;28;20148;-69
2022/05/25 05:18:48;;;;;;;8.38;4.75;;;;;;;12.27;nan;100220.31;5013357;28;20048;-71
2022/05/25 05:21:15;;;;;;;7.40;4.03;;;;;;;12.67;0.00;58404.97;5032263;28;20050;-68
2022/05/25 05:23:43;;;;;;;9.63;4.80;;;;;;;13.28;nan;100222.38;5027344;28;20046;-72
2022/05/25 05:26:13;;;;;;;7.13;4.05;;;;;;;14.58;nan;100213.44;5013954;28;20117;-71
2022/05/25 05:28:42;;;;;;;9.57;4.15;;;;;;;15.97;nan;100214.63;5022597;28;20038;-68
2022/05/25 05:31:10;;;;;;;7.40;4.10;;;;;;;17.04;nan;100214.06;5028747;28;20053;-71
2022/05/25 05:33:38;;;;;;;9.48;3.28;;;;;;;17.94;nan;100217.34;5026893;28;20084;-69
2022/05/25 05:36:11;;;;;;;7.97;3.78;;;;;;;18.77;nan;100217.25;5032668;28;20050;-70
2022/05/25 05:38:59;;;;;;;17.88;4.15;;;;;;;19.40;nan;100218.88;5030761;28;20038;-71
2022/05/25 05:41:33;;;;;;;14.43;3.90;;;;;;;19.83;nan;100207.59;5028296;28;20054;-69
2022/05/25 05:44:02;;;;;;;10.32;3.50;;;;;;;20.30;nan;100204.78;5030612;28;20791;-70
2022/05/25 05:46:30;;;;;;;10.55;3.10;;;;;;;20.70;nan;100198.78;5026930;28;20050;-69
2022/05/25 05:48:59;;;;;;;8.10;3.22;;;;;;;20.98;nan;100200.47;5030009;28;20030;-70
2022/05/25 05:51:26;;;;;;;6.75;3.20;;;;;;;21.24;nan;100196.13;5023933;28;20038;-71
2022/05/25 05:53:53;;;;;;;12.50;3.60;;;;;;;21.46;nan;100199.91;5025914;28;20058;-69
2022/05/25 05:56:23;;;;;;;10.35;3.30;;;;;;;21.68;nan;100203.69;5023577;28;20069;-71
2022/05/25 05:58:52;;;;;;;8.68;2.33;;;;;;;21.82;nan;100205.38;5024383;28;20046;-71
2022/05/25 06:01:19;;;;;;;5.95;3.08;;;;;;;21.97;nan;100206.09;5027070;28;20042;-71
2022/05/25 06:03:49;;;;;;;5.75;2.85;;;;;;;22.14;nan;100203.13;5017329;28;20041;-71
2022/05/25 06:06:19;;;;;;;8.07;2.92;;;;;;;22.17;nan;100194.19;5019417;28;20030;-70
2022/05/25 06:08:46;;;;;;;6.80;2.40;;;;;;;21.71;nan;100199.09;5016609;28;20046;-70
2022/05/25 06:11:16;;;;;;;11.40;3.28;;;;;;;20.63;nan;100200.94;5016707;28;20049;-69
2022/05/25 06:13:44;;;;;;;8.35;3.33;;;;;;;19.27;nan;100210.06;5011012;28;20128;-71
2022/05/25 06:21:46;;;;;;;8.25;3.67;;;;;;;16.66;nan;100216.75;5028877;28;20056;-68
2022/05/25 06:24:13;;;;;;;8.30;3.90;;;;;;;16.21;nan;100227.44;5021769;28;20110;-69
2022/05/25 06:26:40;;;;;;;7.00;3.90;;;;;;;15.91;nan;100214.91;5022831;28;20042;-67
2022/05/25 06:29:07;;;;;;;9.73;4.05;;;;;;;15.69;nan;100228.81;5015584;28;20044;-68
2022/05/25 06:31:34;;;;;;;8.63;4.32;;;;;;;15.50;nan;100230.50;5021832;28;20054;-69
2022/05/25 06:34:02;;;;;;;7.63;4.05;;;;;;;15.34;nan;100232.91;5010361;28;20039;-68
2022/05/25 06:36:29;;;;;;;11.35;4.30;;;;;;;15.19;nan;100224.00;5031252;28;20496;-69
2022/05/25 06:38:57;;;;;;;10.95;4.30;;;;;;;15.02;nan;100230.75;5017441;28;20042;-70
2022/05/25 06:41:28;;;;;;;7.93;3.70;;;;;;;14.93;nan;100227.66;5020320;28;20721;-69
2022/05/25 06:43:56;;;;;;;7.72;3.90;;;;;;;14.98;nan;100229.16;5035786;28;20121;-69
2022/05/25 06:46:24;;;;;;;9.95;4.28;;;;;;;14.97;nan;100235.25;5022795;28;20034;-68
2022/05/25 06:48:55;;;;;;;7.40;4.10;;;;;;;14.94;nan;100231.94;5035538;28;20721;-68
2022/05/25 06:51:33;;;;;;;10.65;4.90;;;;;;;14.89;nan;100237.31;5026518;28;20117;-69
2022/05/25 06:54:05;;;;;;;28.08;4.82;;;;;;;14.83;nan;100240.16;5019188;28;20058;-69
2022/05/25 06:56:34;;;;;;;14.57;5.30;;;;;;;14.81;nan;100242.78;5036300;28;20038;-68
2022/05/25 06:59:05;;;;;;;12.35;5.13;;;;;;;14.73;nan;100244.84;5020089;28;20516;-68
2022/05/25 07:01:35;;;;;;;11.77;5.18;;;;;;;14.78;nan;100249.84;5023712;28;20073;-68
2022/05/25 07:04:05;;;;;;;10.63;4.80;;;;;;;14.88;nan;100256.38;5026884;28;20034;-69
2022/05/25 07:06:36;;;;;;;11.82;5.20;;;;;;;15.05;nan;100258.28;5022497;28;20551;-69
2022/05/25 07:09:10;;;;;;;10.38;4.85;;;;;;;15.23;nan;100264.50;5028558;28;20038;-69
2022/05/25 07:11:38;;;;;;;9.55;5.18;;;;;;;15.40;nan;100255.16;5019185;28;20121;-69
2022/05/25 07:14:07;;;;;;;12.57;5.35;;;;;;;15.56;nan;100255.34;5026002;28;20042;-68
2022/05/25 07:16:34;;;;;;;12.55;5.30;;;;;;;15.64;nan;100263.66;5017285;28;20122;-66
2022/05/25 07:19:03;;;;;;;16.25;5.72;;;;;;;15.72;nan;100256.38;5009111;28;20046;-69
2022/05/25 07:21:31;;;;;;;15.55;4.68;;;;;;;15.78;nan;100270.84;5033568;28;20555;-68
2022/05/25 07:24:00;;;;;;;13.52;4.72;;;;;;;15.87;nan;100270.53;5022996;28;20050;-68
2022/05/25 07:26:32;;;;;;;8.45;4.60;;;;;;;15.90;nan;100272.97;5022390;28;20393;-66
2022/05/25 07:29:00;;;;;;;14.40;4.72;;;;;;;15.97;nan;100273.53;5019058;28;20038;-69
2022/05/25 07:31:33;;;;;;;15.43;5.07;;;;;;;16.11;nan;100267.72;5027491;28;20038;-67
2022/05/25 07:34:14;;;;;;;23.23;5.13;;;;;;;16.28;nan;100269.59;5027509;28;21033;-70
2022/05/25 07:36:51;;;;;;;7.85;3.80;;;;;;;16.42;nan;100272.41;5017989;28;20898;-69
2022/05/25 07:39:23;;;;;;;10.35;4.05;;;;;;;16.58;nan;100272.53;5039415;28;20082;-68
2022/05/25 07:41:56;;;;;;;10.98;4.20;;;;;;;16.69;nan;100269.44;5024865;28;20820;-70
2022/05/25 07:44:32;;;;;;;10.95;4.20;;;;;;;16.80;nan;100263.72;5015305;28;20532;-70
2022/05/25 07:47:00;;;;;;;7.85;4.10;;;;;;;17.10;nan;100272.78;5024849;28;20442;-71
2022/05/25 08:12:59;;;;;;;9.80;2.90;;;;;;;19.96;50.61;101379.81;5076949;27;20384;-72
2022/05/25 08:15:29;;;;;;;6.53;2.88;;;;;;;19.11;51.90;101378.63;5052995;28;21875;-72
2022/05/25 08:17:59;;;;;;;10.82;3.58;;;;;;;18.67;53.78;101382.84;5065051;28;23731;-72
2022/05/25 08:20:29;;;;;;;6.40;2.63;;;;;;;18.48;54.83;101378.50;5066729;28;20033;-71
2022/05/25 08:22:57;;;;;;;8.65;2.92;;;;;;;18.39;55.61;101377.22;5063552;28;20519;-71
2022/05/25 08:25:24;;;;;;;8.05;2.95;;;;;;;18.25;55.70;101375.31;5065182;28;20045;-71
2022/05/25 08:27:51;;;;;;;6.65;2.70;;;;;;;18.21;56.27;101379.06;5051398;27;20057;-72
2022/05/25 08:30:20;;;;;;;9.75;2.22;;;;;;;18.11;55.56;101370.69;5062004;28;20085;-73
2022/05/25 08:32:50;;;;;;;8.57;2.95;;;;;;;18.13;55.83;101375.97;5052508;28;20048;-72
2022/05/25 08:35:18;;;;;;;7.68;2.67;;;;;;;18.01;55.83;101372.13;5059241;28;20041;-71
2022/05/25 08:37:46;;;;;;;6.80;2.78;;;;;;;17.91;57.13;101365.53;5048440;28;20044;-71
2022/05/25 08:40:18;;;;;;;7.53;2.45;;;;;;;17.86;57.30;101373.78;5050992;28;20067;-72
2022/05/25 08:43:18;;;;;;;5.93;2.33;;;;;;;17.92;57.06;101369.91;5062082;28;20049;-72
2022/05/25 08:46:01;;;;;;;4.60;2.60;;;;;;;18.03;56.84;101356.91;5054090;28;20079;-73
2022/05/25 08:48:31;;;;;;;9.90;2.45;;;;;;;17.99;56.82;101364.22;5059069;28;20042;-70
2022/05/25 08:51:06;;;;;;;9.98;2.55;;;;;;;18.05;55.65;101371.03;5045460;28;20080;-70
2022/05/25 08:53:35;;;;;;;5.10;2.28;;;;;;;17.94;55.49;101362.72;5049642;28;20041;-72
2022/05/25 08:56:26;;;;;;;11.90;2.80;;;;;;;17.97;56.51;101358.09;5043296;28;20030;-69
2022/05/25 08:59:13;;;;;;;4.60;2.35;;;;;;;17.94;56.45;101365.38;5054951;28;20045;-70
2022/05/25 09:01:54;;;;;;;7.32;2.30;;;;;;;18.02;56.28;101362.34;5057984;28;20041;-70
2022/05/25 09:04:40;;;;;;;5.20;2.60;;;;;;;18.16;55.54;101357.13;5056503;28;20930;-72
2022/05/25 09:07:45;;;;;;;5.30;1.98;;;;;;;18.27;55.34;101356.53;5063272;28;20778;-70
2022/05/25 09:10:15;;;;;;;4.38;1.70;;;;;;;18.45;54.32;101365.34;5061890;28;20044;-70
2022/05/25 09:12:58;;;;;;;4.60;1.92;;;;;;;18.71;54.50;101363.00;5056608;28;20212;-70
2022/05/25 09:15:35;;;;;;;6.63;1.83;;;;;;;18.83;53.66;101364.13;5058826;28;20040;-70
2022/05/25 09:18:13;;;;;;;6.65;1.83;;;;;;;18.95;53.63;101371.47;5053107;28;20037;-70
2022/05/25 09:20:48;;;;;;;9.48;2.13;;;;;;;19.17;52.74;101367.56;5058507;28;20060;-70
2022/05/25 09:23:17;;;;;;;4.43;2.03;;;;;;;19.40;51.90;101364.41;5045733;28;20048;-71
2022/05/25 09:25:46;;;;;;;5.80;1.90;;;;;;;19.18;52.17;101371.97;5043534;28;20045;-70
2022/05/25 09:28:28;;;;;;;11.32;2.13;;;;;;;19.12;52.07;101370.50;5041617;28;20041;-70
2022/05/25 09:31:02;;;;;;;13.95;2.70;;;;;;;19.05;52.08;101369.16;5041076;28;20061;-70
2022/05/25 09:33:38;;;;;;;10.32;1.98;;;;;;;19.05;51.79;101369.16;5042086;28;20038;-71
2022/05/25 09:36:22;;;;;;;5.05;1.60;;;;;;;19.18;53.05;101372.81;5044603;28;20054;-70
2022/05/25 09:39:12;;;;;;;11.52;2.05;;;;;;;19.48;51.49;101368.44;5041419;28;20167;-69
2022/05/25 09:41:45;;;;;;;5.25;1.67;;;;;;;19.30;52.44;101375.72;5042488;28;20038;-71
2022/05/25 09:44:19;;;;;;;4.00;1.50;;;;;;;19.59;51.11;101376.66;5043695;28;20129;-70
2022/05/25 09:47:16;;;;;;;3.63;1.30;;;;;;;19.83;50.39;101376.16;5037123;28;20136;-70
2022/05/25 09:49:48;;;;;;;5.25;1.50;;;;;;;19.95;49.88;101374.56;5043094;28;20247;-71
2022/05/25 09:52:39;;;;;;;5.55;1.60;;;;;;;20.04;47.64;101379.34;5041255;28;20052;-69
2022/05/25 09:55:20;;;;;;;7.18;1.45;;;;;;;19.96;47.66;101381.63;5047874;28;20096;-72
2022/05/25 09:58:25;;;;;;;4.78;1.52;;;;;;;19.55;47.55;101383.13;5045503;28;20042;-70
2022/05/25 10:01:16;;;;;;;3.63;1.45;;;;;;;19.06;48.34;101382.41;5046885;28;20104;-70
2022/05/25 10:03:45;;;;;;;2.67;1.15;;;;;;;18.75;49.30;101397.47;5045844;28;20115;-70
2022/05/25 10:06:34;;;;;;;4.70;1.50;;;;;;;18.53;50.25;101391.59;5046426;28;20038;-71
2022/05/25 10:09:24;;;;;;;2.60;1.30;;;;;;;18.26;50.39;101394.84;5049582;28;20141;-71
2022/05/25 10:12:29;;;;;;;13.82;1.25;;;;;;;18.34;50.38;101395.28;5046155;28;20069;-71
2022/05/25 10:15:12;;;;;;;3.65;1.80;;;;;;;18.76;48.87;101403.69;5048373;28;20033;-72
2022/05/25 10:17:43;;;;;;;5.90;1.40;;;;;;;19.19;48.62;101387.03;5040391;28;20038;-71
2022/05/25 10:20:23;;;;;;;5.32;1.20;;;;;;;19.55;48.90;101384.03;5041389;28;20042;-73
2022/05/25 10:23:27;;;;;;;8.90;1.27;;;;;;;19.91;46.63;101387.28;5042637;28;20376;-71
2022/05/25 10:26:12;;;;;;;14.63;1.63;;;;;;;20.09;45.20;101379.06;5049628;28;20065;-71
2022/05/25 10:29:02;;;;;;;5.45;1.08;;;;;;;20.01;46.35;101376.84;5044396;28;20092;-70
2022/05/25 10:37:39;;;;;;;9.35;1.10;;;;;;;19.94;46.31;101389.72;5046620;28;20041;-70
2022/05/25 10:40:09;;;;;;;8.15;0.90;;;;;;;20.06;44.51;101393.50;5032580;28;20103;-70
2022/05/25 10:42:39;;;;;;;8.25;1.00;;;;;;;20.05;44.23;101389.09;5032844;28;20415;-71
2022/05/25 10:45:21;;;;;;;23.25;2.78;;;;;;;19.81;44.15;101388.75;5036420;28;20053;-70
2022/05/25 10:47:51;;;;;;;5.72;1.00;;;;;;;19.99;45.19;101395.69;5032724;28;20045;-70
2022/05/25 10:50:32;;;;;;;5.70;1.05;;;;;;;20.28;44.31;101386.81;5045684;28;20081;-70
2022/05/25 10:56:52;;;;;;;3.40;0.80;;;;;;;20.45;42.29;101386.59;5030959;28;20151;-71
2022/05/25 10:59:40;;;;;;;4.78;0.70;;;;;;;20.37;41.26;101377.31;5038707;28;20037;-71
2022/05/25 11:02:57;;;;;;;2.85;1.00;;;;;;;20.07;42.41;101373.81;5040758;28;20048;-71
2022/05/25 11:05:46;;;;;;;3.08;0.60;;;;;;;20.29;43.71;101367.13;5041582;28;20503;-71
2022/05/25 11:08:41;;;;;;;8.77;1.40;;;;;;;20.53;42.07;101363.81;5032858;28;20631;-70
2022/05/25 11:11:36;;;;;;;11.00;1.10;;;;;;;20.61;40.73;101364.16;5032129;28;20058;-73
2022/05/25 11:14:23;;;;;;;6.07;1.00;;;;;;;20.71;39.68;101372.47;5036719;28;20042;-71
2022/05/25 11:17:25;;;;;;;20.60;1.20;;;;;;;20.82;39.06;101361.09;5042775;28;20059;-72
2022/05/25 11:20:24;;;;;;;10.35;1.15;;;;;;;20.81;40.90;101352.19;5042145;28;20096;-72
2022/05/25 11:23:19;;;;;;;9.05;0.80;;;;;;;21.00;40.83;101370.63;5042793;28;20117;-70
2022/05/25 11:26:35;;;;;;;4.68;0.70;;;;;;;21.27;41.72;101364.38;5030489;28;20042;-70
2022/05/25 11:29:42;;;;;;;8.35;0.75;;;;;;;21.42;37.11;101359.78;5043234;28;20049;-72
2022/05/25 11:32:40;;;;;;;10.85;0.80;;;;;;;21.50;36.62;101370.00;5034806;28;20041;-72
2022/05/25 11:35:48;;;;;;;13.50;0.93;;;;;;;21.62;38.27;101363.78;5030358;28;20044;-73
2022/05/25 11:38:57;;;;;;;19.30;2.25;;;;;;;21.75;39.31;101350.41;5028614;28;20087;-73
2022/05/25 11:41:55;;;;;;;3.95;0.80;;;;;;;21.98;38.15;101354.16;5042441;28;20049;-70
2022/05/25 11:45:04;;;;;;;11.27;1.10;;;;;;;21.88;38.35;101347.72;5041205;28;20080;-72
2022/05/25 11:48:08;;;;;;;9.25;0.90;;;;;;;21.77;37.36;101342.25;5042141;28;20042;-73
2022/05/25 11:50:52;;;;;;;8.18;0.82;;;;;;;21.96;35.71;101348.03;5044153;28;20041;-73
2022/05/25 11:53:47;;;;;;;6.37;0.73;;;;;;;21.94;35.33;101346.44;5046225;28;20041;-72
2022/05/25 11:56:50;;;;;;;3.88;0.50;;;;;;;21.88;35.87;101345.03;5040796;28;20303;-76
2022/05/25 11:59:40;;;;;;;10.07;0.80;;;;;;;21.49;36.69;101338.78;5043981;28;20046;-71
2022/05/25 12:02:38;;;;;;;2.72;0.70;;;;;;;21.51;38.09;101342.22;5039054;28;20041;-72
2022/05/25 12:05:38;;;;;;;9.52;0.75;;;;;;;21.66;37.95;101348.38;5035466;28;20038;-73
2022/05/25 12:08:07;;;;;;;3.33;0.60;;;;;;;21.76;37.96;101345.88;5028469;28;20496;-73
2022/05/25 12:10:45;;;;;;;10.48;0.85;;;;;;;21.91;37.67;101331.41;5031475;28;20132;-73
2022/05/25 12:13:26;;;;;;;3.30;0.40;;;;;;;22.06;36.54;101334.84;5029788;28;20046;-72
2022/05/25 12:16:32;;;;;;;6.60;0.73;;;;;;;22.08;36.98;101346.28;5031063;28;20785;-72
2022/05/25 12:19:21;;;;;;;6.43;0.68;;;;;;;22.07;36.77;101336.56;5029993;28;20048;-74
2022/05/25 12:21:58;;;;;;;10.57;0.82;;;;;;;21.87;37.16;101341.47;5030194;28;20049;-72
2022/05/25 12:24:41;;;;;;;8.45;0.93;;;;;;;22.10;36.14;101349.72;5030716;28;20120;-74
2022/05/25 12:27:21;;;;;;;5.90;0.70;;;;;;;22.23;37.19;101344.34;5026685;28;20049;-74
2022/05/25 12:29:55;;;;;;;4.20;0.68;;;;;;;22.45;36.97;101345.50;5035691;28;20046;-74
2022/05/25 12:32:26;;;;;;;6.32;0.80;;;;;;;22.60;36.46;101354.25;5037363;28;20125;-75
2022/05/25 12:34:55;;;;;;;2.80;0.55;;;;;;;22.51;36.17;101344.19;5036954;28;20042;-71
2022/05/25 12:37:38;;;;;;;2.95;0.77;;;;;;;22.55;37.11;101349.22;5037717;28;20404;-71
2022/05/25 12:40:43;;;;;;;7.95;0.70;;;;;;;22.68;35.90;101354.59;5042353;28;20554;-72
2022/05/25 12:43:39;;;;;;;12.07;0.70;;;;;;;22.38;36.03;101354.94;5036024;28;20596;-71
2022/05/25 12:49:04;;;;;;;13.15;0.88;;;;;;;21.52;37.02;101360.00;5040410;28;20049;-72
2022/05/25 12:51:44;;;;;;;3.65;0.85;;;;;;;21.09;37.35;101358.41;5043348;28;20799;-70
2022/05/25 12:54:23;;;;;;;4.38;0.65;;;;;;;20.82;37.33;101366.44;5043424;28;20034;-72
2022/05/25 12:56:54;;;;;;;6.50;0.70;;;;;;;20.67;37.19;101353.06;5044149;28;20038;-73
2022/05/25 12:59:39;;;;;;;3.10;0.70;;;;;;;20.81;38.07;101354.03;5047334;28;20049;-71
2022/05/25 13:02:22;;;;;;;1.52;0.50;;;;;;;21.36;37.38;101355.69;5041716;28;20077;-72
2022/05/25 13:04:55;;;;;;;1.77;0.50;;;;;;;21.36;36.60;101363.75;5041665;28;20145;-74
2022/05/25 13:07:39;;;;;;;3.17;0.60;;;;;;;21.09;37.26;101366.44;5041730;28;20042;-75
2022/05/25 13:10:28;;;;;;;6.40;0.70;;;;;;;20.79;37.51;101359.47;5036979;28;20042;-76
2022/05/25 13:12:56;;;;;;;4.20;0.90;;;;;;;20.51;38.01;101360.38;5040041;28;20255;-76
2022/05/25 13:15:24;;;;;;;1.27;0.57;;;;;;;20.26;38.82;101367.28;5048344;28;20754;-76